Alma, Missouri
Current Conditions -  °F | °C
As of 10:55 PM on Wednesday 26 Nov 2014 (Local Time) from KMHL Reporting Station
Overcast Overcast  
Wind Chill: 24°   Ceiling: 800
Heat Index: 34°   Visibility: 7mi
Dew Point: 32°   Wind: 14mph
Humidity: 93%   Direction: 310°NW
Pressure: 30.29"   Gusts: 22mph
Location:  39.1°N, 93.55°W
Report Text: KMHL 270455Z AUTO 31012G19KT 7SM OVC008 01/00 A3029 RMK AO2
Loading
Personal Weather Stations






























Interactive Weather Map New forecast layout! Learn more

10-Day Weather Forecast

Advertisements
Track Severe Weather on mobile